aviador You're here:

KBTL Decoded Metar

BATTLE CREEK in MI, USA
Report Time2017-04-24 12:53:00
UTC Time2017-04-24 13:18:00
Flight Rules vfr VFR
Wind070° at 05 kt
W.Decomp.*RWY 05: 4.6 kt HW 2.0 kt RCW
RWY 13: 2.8 kt HW 4.1 kt LCW
W.Rank070° ranks 36
Current wind is below 070° avg. (6.5)
Visibility9999 m
Phenomena:N/A
Clouds:N/A
Expected CloudBase > 2,400 ft AGL from Temp-Dew spread
CeilingNone
Temp10°C (ISA -3)
Dew Point04°C (67% RH)
AAT6.9°C
QNH1018 hPa
Density Alt525 ft
Elevation951 ft
Report Wrong Elevation
Raw Report
KBTL 241253Z 07005KT 10SM CLR 10/04 A3007=

Extra information for KBTL:More info

Metar Taf Metar & Taf Last 4 Metars F.Rules Stats Wind Profile Meteogram Temp Stats Airport Information Weather charts Add Link Nearby VenuesMetar ALERT Operation Metar Decoded Social comments

AIRNAV info for KBTL